Time;durP1;ratioP1;P1;durP2;ratioP2;P2;SDS_P1;SDS_P2;PMS_P1;PMS_P2;Temp;Humidity;BMP_temperature;BMP_pressure;BME280_temperature;BME280_humidity;BME280_pressure;Samples;Min_cycle;Max_cycle;Signal;HPM_P1;HPM_P2
2022/10/11 00:01:18;;;;;;;6.25;3.17;;;;;;;;;;4964610;28;20475;-69
2022/10/11 00:03:44;;;;;;;8.63;3.38;;;;;;;;;;4964605;28;20061;-69
2022/10/11 00:06:10;;;;;;;6.30;3.40;;;;;;;;;;4964937;28;20534;-69
2022/10/11 00:08:35;;;;;;;4.60;3.67;;;;;;;;;;4964039;28;20042;-69
2022/10/11 00:11:04;;;;;;;4.40;3.63;;;;;;;;;;4963855;28;20077;-69
2022/10/11 00:13:30;;;;;;;4.43;4.00;;;;;;;;;;4965078;28;20644;-69
2022/10/11 00:15:56;;;;;;;6.32;3.90;;;;;;;;;;4966063;28;20054;-69
2022/10/11 00:18:22;;;;;;;6.40;3.80;;;;;;;;;;4965188;28;20491;-69
2022/10/11 00:20:47;;;;;;;7.90;4.18;;;;;;;;;;4965327;28;20143;-69
2022/10/11 00:23:13;;;;;;;7.03;4.50;;;;;;;;;;4965441;28;20618;-68
2022/10/11 00:25:39;;;;;;;5.00;3.95;;;;;;;;;;4965782;28;20101;-68
2022/10/11 00:28:04;;;;;;;16.75;3.78;;;;;;;;;;4965128;28;21024;-68
2022/10/11 00:30:30;;;;;;;16.48;3.40;;;;;;;;;;4962742;28;20407;-69
2022/10/11 00:32:56;;;;;;;11.00;3.47;;;;;;;;;;4963086;28;20066;-69
2022/10/11 00:35:22;;;;;;;3.33;2.72;;;;;;;;;;4964153;28;20078;-68
2022/10/11 00:37:48;;;;;;;3.08;2.60;;;;;;;;;;4963926;28;20093;-68
2022/10/11 00:40:16;;;;;;;5.60;2.60;;;;;;;;;;4963416;28;20070;-68
2022/10/11 00:42:42;;;;;;;12.18;3.20;;;;;;;;;;4963945;28;20077;-67
2022/10/11 00:45:25;;;;;;;9.93;3.13;;;;;;;;;;4963978;28;20098;-68
2022/10/11 00:47:58;;;;;;;4.80;3.00;;;;;;;;;;4964334;28;20128;-68
2022/10/11 00:50:26;;;;;;;4.63;3.05;;;;;;;;;;4964889;28;20232;-69
2022/10/11 00:52:56;;;;;;;7.63;3.15;;;;;;;;;;4964091;28;20050;-68
2022/10/11 00:55:25;;;;;;;4.13;2.80;;;;;;;;;;4964289;28;20456;-67
2022/10/11 00:57:51;;;;;;;3.30;3.00;;;;;;;;;;4964755;28;20043;-68
2022/10/11 01:00:18;;;;;;;4.32;3.00;;;;;;;;;;4963037;28;20407;-69
2022/10/11 01:02:44;;;;;;;6.07;3.10;;;;;;;;;;4960848;28;20047;-70
2022/10/11 01:05:15;;;;;;;5.10;3.17;;;;;;;;;;4962444;28;20134;-67
2022/10/11 01:07:41;;;;;;;6.90;3.10;;;;;;;;;;4963045;28;20038;-68
2022/10/11 01:10:07;;;;;;;5.00;3.50;;;;;;;;;;4963262;28;20043;-70
2022/10/11 01:12:33;;;;;;;5.07;3.25;;;;;;;;;;4963623;28;20415;-69
2022/10/11 01:15:47;;;;;;;13.52;3.55;;;;;;;;;;4963871;28;20042;-69
2022/10/11 01:18:25;;;;;;;5.50;3.60;;;;;;;;;;4948441;28;20031;-68
2022/10/11 01:21:02;;;;;;;5.50;3.55;;;;;;;;;;4961089;28;20038;-69
2022/10/11 01:23:33;;;;;;;4.22;3.45;;;;;;;;;;4973449;28;20197;-67
2022/10/11 01:26:11;;;;;;;4.55;3.60;;;;;;;;;;4962025;28;20062;-68
2022/10/11 01:28:58;;;;;;;6.00;3.10;;;;;;;;;;4953587;28;20057;-69
2022/10/11 01:31:46;;;;;;;5.35;3.28;;;;;;;;;;4953338;28;20046;-68
2022/10/11 01:34:24;;;;;;;6.22;3.17;;;;;;;;;;4961755;28;20993;-69
2022/10/11 01:37:19;;;;;;;7.35;3.58;;;;;;;;;;4957969;28;20050;-68
2022/10/11 01:39:50;;;;;;;6.47;3.58;;;;;;;;;;4956346;28;20059;-67
2022/10/11 01:42:18;;;;;;;4.72;3.38;;;;;;;;;;4962942;28;20495;-68
2022/10/11 01:44:47;;;;;;;6.95;3.22;;;;;;;;;;4963573;28;20520;-68
2022/10/11 01:47:17;;;;;;;3.60;3.30;;;;;;;;;;4962803;28;20035;-69
2022/10/11 01:49:42;;;;;;;4.05;3.28;;;;;;;;;;4963114;28;20047;-67
2022/10/11 01:52:09;;;;;;;7.10;3.63;;;;;;;;;;4963131;28;20415;-68
2022/10/11 01:55:03;;;;;;;9.63;3.63;;;;;;;;;;4963419;28;20142;-67
2022/10/11 01:57:59;;;;;;;6.20;3.88;;;;;;;;;;4955107;28;20404;-67
2022/10/11 02:00:30;;;;;;;6.90;3.90;;;;;;;;;;4962550;28;20055;-70
2022/10/11 02:03:26;;;;;;;4.70;3.40;;;;;;;;;;4955734;28;20499;-69
2022/10/11 02:06:15;;;;;;;8.30;4.05;;;;;;;;;;4942240;28;20046;-69
2022/10/11 02:09:02;;;;;;;9.48;3.42;;;;;;;;;;4945843;28;20050;-68
2022/10/11 02:11:32;;;;;;;5.72;3.60;;;;;;;;;;4962416;28;20582;-68
2022/10/11 02:14:05;;;;;;;6.88;3.45;;;;;;;;;;4954387;28;20458;-67
2022/10/11 02:16:36;;;;;;;6.80;3.70;;;;;;;;;;4962965;28;20054;-68
2022/10/11 02:19:05;;;;;;;7.63;3.80;;;;;;;;;;4961979;28;20081;-68
2022/10/11 02:21:35;;;;;;;9.68;4.15;;;;;;;;;;4961628;28;20061;-67
2022/10/11 02:24:15;;;;;;;11.40;4.35;;;;;;;;;;4962520;28;20038;-68
2022/10/11 02:26:45;;;;;;;9.05;3.85;;;;;;;;;;4961392;28;21214;-68
2022/10/11 02:29:13;;;;;;;10.07;4.10;;;;;;;;;;4961749;28;20046;-68
2022/10/11 02:31:40;;;;;;;7.82;4.15;;;;;;;;;;4960929;28;20411;-67
2022/10/11 02:34:18;;;;;;;8.32;3.60;;;;;;;;;;4961804;28;20043;-71
2022/10/11 02:36:51;;;;;;;8.70;4.03;;;;;;;;;;4961597;28;20039;-68
2022/10/11 02:39:34;;;;;;;8.18;4.30;;;;;;;;;;4961450;28;20093;-67
2022/10/11 02:42:04;;;;;;;7.47;4.30;;;;;;;;;;4960558;28;20043;-71
2022/10/11 02:44:36;;;;;;;5.80;4.13;;;;;;;;;;4961503;28;20075;-67
2022/10/11 02:47:03;;;;;;;9.70;4.05;;;;;;;;;;4961207;28;20055;-67
2022/10/11 02:49:29;;;;;;;14.00;3.97;;;;;;;;;;4961511;28;20443;-67
2022/10/11 02:51:56;;;;;;;11.73;4.10;;;;;;;;;;4961318;28;20585;-71
2022/10/11 02:54:23;;;;;;;13.80;4.45;;;;;;;;;;4962467;28;20541;-67
2022/10/11 02:56:48;;;;;;;10.25;4.35;;;;;;;;;;4965478;28;20039;-68
2022/10/11 02:59:14;;;;;;;5.97;4.30;;;;;;;;;;4963165;28;20074;-67
2022/10/11 03:01:39;;;;;;;5.00;3.47;;;;;;;;;;4965072;28;20173;-68
2022/10/11 03:04:04;;;;;;;10.70;4.03;;;;;;;;;;4964803;28;20133;-69
2022/10/11 03:06:30;;;;;;;4.95;3.40;;;;;;;;;;4964346;28;20161;-67
2022/10/11 03:08:55;;;;;;;6.57;3.83;;;;;;;;;;4964743;28;20125;-69
2022/10/11 03:11:21;;;;;;;11.20;4.75;;;;;;;;;;4965134;28;20070;-67
2022/10/11 03:13:46;;;;;;;5.32;3.60;;;;;;;;;;4964952;28;20043;-68
2022/10/11 03:16:12;;;;;;;8.38;4.30;;;;;;;;;;4964677;28;20487;-68
2022/10/11 03:18:37;;;;;;;10.30;4.03;;;;;;;;;;4964863;28;20054;-68
2022/10/11 03:21:03;;;;;;;5.93;3.75;;;;;;;;;;4964327;28;20618;-68
2022/10/11 03:23:28;;;;;;;4.47;3.22;;;;;;;;;;4964965;28;20062;-68
2022/10/11 03:25:54;;;;;;;8.68;3.80;;;;;;;;;;4964119;28;20058;-68
2022/10/11 03:28:20;;;;;;;6.35;3.42;;;;;;;;;;4964661;28;20059;-68
2022/10/11 03:30:47;;;;;;;4.40;3.83;;;;;;;;;;4964269;28;20038;-68
2022/10/11 03:33:13;;;;;;;7.70;4.25;;;;;;;;;;4966073;28;20126;-68
2022/10/11 03:35:39;;;;;;;10.18;4.13;;;;;;;;;;4963961;28;20090;-68
2022/10/11 03:38:05;;;;;;;7.68;3.65;;;;;;;;;;4962704;28;20092;-67
2022/10/11 03:40:31;;;;;;;5.45;3.90;;;;;;;;;;4963234;28;20042;-68
2022/10/11 03:42:56;;;;;;;6.57;4.10;;;;;;;;;;4963117;28;20039;-67
2022/10/11 03:45:22;;;;;;;12.45;3.97;;;;;;;;;;4964709;28;20050;-67
2022/10/11 03:47:48;;;;;;;6.05;3.80;;;;;;;;;;4963215;28;20051;-67
2022/10/11 03:50:13;;;;;;;7.88;3.88;;;;;;;;;;4962182;28;20141;-67
2022/10/11 03:52:39;;;;;;;9.50;3.97;;;;;;;;;;4961577;28;20419;-68
2022/10/11 03:55:06;;;;;;;4.78;3.80;;;;;;;;;;4963477;28;20060;-67
2022/10/11 03:57:31;;;;;;;6.68;3.97;;;;;;;;;;4963217;28;20074;-68
2022/10/11 03:59:57;;;;;;;6.40;3.83;;;;;;;;;;4962386;28;20146;-67
2022/10/11 04:02:22;;;;;;;9.95;3.70;;;;;;;;;;4962983;28;20085;-69
2022/10/11 04:04:48;;;;;;;6.15;3.83;;;;;;;;;;4963499;28;20105;-69
2022/10/11 04:07:13;;;;;;;10.55;4.35;;;;;;;;;;4960732;28;20399;-68
2022/10/11 04:09:39;;;;;;;7.45;4.57;;;;;;;;;;4960272;28;20112;-68
2022/10/11 04:12:04;;;;;;;6.55;4.22;;;;;;;;;;4961627;28;20140;-68
2022/10/11 04:14:30;;;;;;;5.05;3.83;;;;;;;;;;4961286;28;20051;-68
2022/10/11 04:16:55;;;;;;;7.63;3.85;;;;;;;;;;4961229;28;21077;-69
2022/10/11 04:19:21;;;;;;;10.75;4.35;;;;;;;;;;4961194;28;20089;-68
2022/10/11 04:21:46;;;;;;;6.18;3.97;;;;;;;;;;4960153;28;20101;-68
2022/10/11 04:24:12;;;;;;;7.03;4.13;;;;;;;;;;4959361;28;20074;-68
2022/10/11 04:26:37;;;;;;;7.80;4.25;;;;;;;;;;4961367;28;20089;-68
2022/10/11 04:29:04;;;;;;;7.15;3.90;;;;;;;;;;4960842;28;20054;-69
2022/10/11 04:31:30;;;;;;;4.78;3.42;;;;;;;;;;4961336;28;20135;-68
2022/10/11 04:33:56;;;;;;;5.20;3.60;;;;;;;;;;4962260;28;20177;-68
2022/10/11 04:36:22;;;;;;;5.70;3.90;;;;;;;;;;4963494;28;20039;-69
2022/10/11 04:38:48;;;;;;;9.07;3.63;;;;;;;;;;4950955;28;20057;-68
2022/10/11 04:41:14;;;;;;;7.45;3.78;;;;;;;;;;4960972;28;20035;-68
2022/10/11 04:43:40;;;;;;;8.43;3.63;;;;;;;;;;4960755;28;20130;-69
2022/10/11 04:46:06;;;;;;;13.05;4.28;;;;;;;;;;4960249;28;20042;-68
2022/10/11 04:48:31;;;;;;;12.68;4.25;;;;;;;;;;4959405;28;20046;-69
2022/10/11 04:50:57;;;;;;;6.70;3.75;;;;;;;;;;4960981;28;20399;-68
2022/10/11 04:53:23;;;;;;;8.32;4.00;;;;;;;;;;4960093;28;20090;-69
2022/10/11 04:55:59;;;;;;;11.93;4.63;;;;;;;;;;4962106;28;20061;-69
2022/10/11 04:58:26;;;;;;;8.40;4.32;;;;;;;;;;4949781;28;20104;-69
2022/10/11 05:00:52;;;;;;;8.73;3.90;;;;;;;;;;4961922;28;20178;-69
2022/10/11 05:03:17;;;;;;;10.30;4.95;;;;;;;;;;4961275;28;20066;-69
2022/10/11 05:05:43;;;;;;;9.85;4.93;;;;;;;;;;4960719;28;20055;-69
2022/10/11 05:08:08;;;;;;;10.98;4.22;;;;;;;;;;4962800;28;20131;-69
2022/10/11 05:10:34;;;;;;;7.78;4.90;;;;;;;;;;4962112;28;20086;-69
2022/10/11 05:12:59;;;;;;;5.50;4.05;;;;;;;;;;4961760;28;20122;-69
2022/10/11 05:15:25;;;;;;;8.63;4.53;;;;;;;;;;4959597;28;20505;-69
2022/10/11 05:17:50;;;;;;;8.15;4.32;;;;;;;;;;4961915;28;20046;-68
2022/10/11 05:20:16;;;;;;;8.13;4.10;;;;;;;;;;4960307;28;20093;-69
2022/10/11 05:22:41;;;;;;;7.60;3.90;;;;;;;;;;4961484;28;20039;-69
2022/10/11 05:25:07;;;;;;;8.35;4.13;;;;;;;;;;4962014;28;20042;-68
2022/10/11 05:27:32;;;;;;;10.43;4.82;;;;;;;;;;4961614;28;20563;-68
2022/10/11 05:29:57;;;;;;;7.95;3.90;;;;;;;;;;4962627;28;20039;-68
2022/10/11 05:32:23;;;;;;;10.00;3.95;;;;;;;;;;4962147;28;20131;-69
2022/10/11 05:34:48;;;;;;;9.07;3.83;;;;;;;;;;4961230;28;20400;-68
2022/10/11 05:37:14;;;;;;;4.60;3.75;;;;;;;;;;4960140;28;20204;-69
2022/10/11 05:39:39;;;;;;;4.35;3.60;;;;;;;;;;4962251;28;20074;-68
2022/10/11 05:42:05;;;;;;;8.57;4.07;;;;;;;;;;4962554;28;20146;-68
2022/10/11 05:44:30;;;;;;;21.90;3.88;;;;;;;;;;4962678;28;20050;-68
2022/10/11 05:46:56;;;;;;;16.98;4.03;;;;;;;;;;4962250;28;20077;-69
2022/10/11 05:49:21;;;;;;;13.55;4.60;;;;;;;;;;4961818;28;20170;-68
2022/10/11 05:51:46;;;;;;;9.93;4.03;;;;;;;;;;4960912;28;20049;-68
2022/10/11 05:54:12;;;;;;;7.18;4.30;;;;;;;;;;4962246;28;20054;-68
2022/10/11 05:56:37;;;;;;;6.22;3.90;;;;;;;;;;4962593;28;20054;-69
2022/10/11 05:59:03;;;;;;;8.10;3.88;;;;;;;;;;4961520;28;20038;-69
2022/10/11 06:01:29;;;;;;;10.20;4.15;;;;;;;;;;4961435;28;20422;-68
2022/10/11 06:03:54;;;;;;;6.13;3.80;;;;;;;;;;4960976;28;20507;-68
2022/10/11 06:06:20;;;;;;;5.55;3.83;;;;;;;;;;4962525;28;20043;-69
2022/10/11 06:08:46;;;;;;;7.85;3.92;;;;;;;;;;4962087;28;20056;-69
2022/10/11 06:11:24;;;;;;;6.95;3.67;;;;;;;;;;4960696;28;20443;-68
2022/10/11 06:13:52;;;;;;;7.57;4.32;;;;;;;;;;4962131;28;20050;-69
2022/10/11 06:16:18;;;;;;;4.57;3.58;;;;;;;;;;4945002;28;20118;-69
2022/10/11 06:18:43;;;;;;;9.50;4.43;;;;;;;;;;4961784;28;20189;-69
2022/10/11 06:21:09;;;;;;;4.57;3.75;;;;;;;;;;4960046;28;20054;-69
2022/10/11 06:23:34;;;;;;;9.05;4.00;;;;;;;;;;4961783;28;20057;-69
2022/10/11 06:26:06;;;;;;;9.00;3.90;;;;;;;;;;4962042;28;20495;-69
2022/10/11 06:28:33;;;;;;;4.47;3.75;;;;;;;;;;4961586;28;20043;-69
2022/10/11 06:30:59;;;;;;;6.05;4.30;;;;;;;;;;4959947;28;20461;-69
2022/10/11 06:33:25;;;;;;;9.18;5.13;;;;;;;;;;4958977;28;20051;-69
2022/10/11 06:35:59;;;;;;;9.90;4.28;;;;;;;;;;4961306;28;20661;-69
2022/10/11 06:38:25;;;;;;;9.60;3.95;;;;;;;;;;4960119;28;20704;-69
2022/10/11 06:40:51;;;;;;;9.70;4.20;;;;;;;;;;4960900;28;20043;-69
2022/10/11 06:43:16;;;;;;;7.20;4.35;;;;;;;;;;4959492;28;20081;-69
2022/10/11 06:45:41;;;;;;;18.13;5.05;;;;;;;;;;4960334;28;20043;-69
2022/10/11 06:48:07;;;;;;;9.57;4.35;;;;;;;;;;4961139;28;20507;-69
2022/10/11 06:50:32;;;;;;;9.52;4.82;;;;;;;;;;4961866;28;20047;-68
2022/10/11 06:52:59;;;;;;;10.88;4.78;;;;;;;;;;4960804;28;20030;-69
2022/10/11 06:55:24;;;;;;;7.13;4.82;;;;;;;;;;4960770;28;20952;-69
2022/10/11 06:57:50;;;;;;;12.10;5.68;;;;;;;;;;4961857;28;20937;-69
2022/10/11 07:00:15;;;;;;;6.55;5.38;;;;;;;;;;4961084;28;20047;-68
2022/10/11 07:02:41;;;;;;;9.05;5.72;;;;;;;;;;4961408;28;20050;-69
2022/10/11 07:05:07;;;;;;;9.23;4.30;;;;;;;;;;4960301;28;20066;-69
2022/10/11 07:07:32;;;;;;;7.47;4.85;;;;;;;;;;4960960;28;20067;-69
2022/10/11 07:09:58;;;;;;;32.10;5.70;;;;;;;;;;4960206;28;20043;-69
2022/10/11 07:12:23;;;;;;;12.93;5.22;;;;;;;;;;4961478;28;20089;-68
2022/10/11 07:14:49;;;;;;;5.35;4.00;;;;;;;;;;4961391;28;20516;-68
2022/10/11 07:17:14;;;;;;;7.43;3.72;;;;;;;;;;4960249;28;20051;-68
2022/10/11 07:19:40;;;;;;;7.93;3.80;;;;;;;;;;4960774;28;20047;-68
2022/10/11 07:22:05;;;;;;;5.82;3.17;;;;;;;;;;4961389;28;20070;-68
2022/10/11 07:24:31;;;;;;;5.75;2.38;;;;;;;;;;4960071;28;20407;-68
2022/10/11 07:26:56;;;;;;;8.90;2.50;;;;;;;;;;4960840;28;20047;-74
2022/10/11 07:29:21;;;;;;;5.35;2.70;;;;;;;;;;4960246;28;20550;-68
2022/10/11 07:31:47;;;;;;;3.92;2.40;;;;;;;;;;4961080;28;20135;-68
2022/10/11 07:34:12;;;;;;;5.53;2.22;;;;;;;;;;4961443;28;20488;-68
2022/10/11 07:36:38;;;;;;;4.95;2.83;;;;;;;;;;4961539;28;20051;-69
2022/10/11 07:39:05;;;;;;;4.35;2.40;;;;;;;;;;4959907;28;20055;-68
2022/10/11 07:41:31;;;;;;;6.47;2.75;;;;;;;;;;4962662;28;20069;-70
2022/10/11 07:43:57;;;;;;;7.70;3.50;;;;;;;;;;4964762;28;20065;-71
2022/10/11 07:46:22;;;;;;;6.47;2.40;;;;;;;;;;4964550;28;20035;-70
2022/10/11 07:48:49;;;;;;;4.57;2.60;;;;;;;;;;4964471;28;20077;-70
2022/10/11 07:51:14;;;;;;;4.20;2.60;;;;;;;;;;4962605;28;20046;-70
2022/10/11 07:53:45;;;;;;;9.10;2.47;;;;;;;;;;4964511;28;20061;-70
2022/10/11 07:56:13;;;;;;;7.20;2.50;;;;;;;;;;4963193;28;20054;-70
2022/10/11 07:58:39;;;;;;;10.52;2.65;;;;;;;;;;4964161;28;20051;-70
2022/10/11 08:01:06;;;;;;;7.78;2.60;;;;;;;;;;4962957;28;20043;-69
2022/10/11 08:03:31;;;;;;;5.63;2.95;;;;;;;;;;4962882;28;20070;-71
2022/10/11 08:06:05;;;;;;;3.45;2.35;;;;;;;;;;4964491;28;20077;-70
2022/10/11 08:08:31;;;;;;;10.68;2.30;;;;;;;;;;4964252;28;20050;-71
2022/10/11 08:10:58;;;;;;;7.93;2.20;;;;;;;;;;4963852;28;20399;-70
2022/10/11 08:13:24;;;;;;;6.05;2.40;;;;;;;;;;4963471;28;20448;-70
2022/10/11 08:15:50;;;;;;;3.78;2.55;;;;;;;;;;4964003;28;20578;-71
2022/10/11 08:18:16;;;;;;;5.75;2.28;;;;;;;;;;4963885;28;20073;-70
2022/10/11 08:20:41;;;;;;;8.73;2.03;;;;;;;;;;4963645;28;20104;-71
2022/10/11 08:23:08;;;;;;;5.43;2.03;;;;;;;;;;4962075;28;20054;-71
2022/10/11 08:25:42;;;;;;;2.58;1.65;;;;;;;;;;4963838;28;20054;-71
2022/10/11 08:28:09;;;;;;;5.50;2.20;;;;;;;;;;4963873;28;20066;-71
2022/10/11 08:30:35;;;;;;;6.88;2.40;;;;;;;;;;4963634;28;20075;-71
2022/10/11 08:33:01;;;;;;;5.47;1.77;;;;;;;;;;4963337;28;20050;-70
2022/10/11 08:35:26;;;;;;;8.80;2.47;;;;;;;;;;4962797;28;20205;-71
2022/10/11 08:37:52;;;;;;;7.30;2.58;;;;;;;;;;4962558;28;20153;-70
2022/10/11 08:40:20;;;;;;;8.88;2.58;;;;;;;;;;4963237;28;20495;-71
2022/10/11 08:42:57;;;;;;;6.90;2.30;;;;;;;;;;4963158;28;20046;-71
2022/10/11 08:45:40;;;;;;;8.13;2.97;;;;;;;;;;4962348;28;20545;-71
2022/10/11 08:48:13;;;;;;;5.28;2.10;;;;;;;;;;4963301;28;20035;-71
2022/10/11 08:50:39;;;;;;;5.45;2.38;;;;;;;;;;4963374;28;20043;-70
2022/10/11 08:53:17;;;;;;;4.53;2.17;;;;;;;;;;4962363;28;20898;-70
2022/10/11 08:55:49;;;;;;;7.85;2.03;;;;;;;;;;4962654;28;20043;-71
2022/10/11 08:58:21;;;;;;;9.18;2.10;;;;;;;;;;4963163;28;20418;-70
2022/10/11 09:00:51;;;;;;;7.93;2.00;;;;;;;;;;4961884;28;20061;-70
2022/10/11 09:03:27;;;;;;;4.15;1.92;;;;;;;;;;4956853;28;20066;-70
2022/10/11 09:06:14;;;;;;;6.85;1.52;;;;;;;;;;4963107;28;20042;-70
2022/10/11 09:08:42;;;;;;;4.93;1.70;;;;;;;;;;4963234;28;20050;-70
2022/10/11 09:11:29;;;;;;;7.50;1.60;;;;;;;;;;4962697;28;20054;-70
2022/10/11 09:14:20;;;;;;;6.00;1.75;;;;;;;;;;4962881;28;20053;-70
2022/10/11 09:17:30;;;;;;;8.03;1.80;;;;;;;;;;4963176;28;20050;-70
2022/10/11 09:20:19;;;;;;;8.50;1.88;;;;;;;;;;4899832;28;20068;-71
2022/10/11 09:23:24;;;;;;;6.97;1.80;;;;;;;;;;4962523;28;20051;-70
2022/10/11 09:26:14;;;;;;;6.07;1.83;;;;;;;;;;4942404;28;20055;-70
2022/10/11 09:28:49;;;;;;;4.53;2.30;;;;;;;;;;4961627;28;20039;-70
2022/10/11 09:31:15;;;;;;;7.03;2.45;;;;;;;;;;4962428;28;21147;-71
2022/10/11 09:33:51;;;;;;;8.27;2.05;;;;;;;;;;4962409;28;20594;-70
2022/10/11 09:36:16;;;;;;;8.13;1.98;;;;;;;;;;4962707;28;20551;-70
2022/10/11 09:39:19;;;;;;;18.10;1.98;;;;;;;;;;4962420;28;20057;-70
2022/10/11 09:41:49;;;;;;;8.57;1.60;;;;;;;;;;4958704;28;20046;-71
2022/10/11 09:44:22;;;;;;;5.25;1.85;;;;;;;;;;4961378;28;20046;-71
2022/10/11 09:46:49;;;;;;;8.07;2.00;;;;;;;;;;4962592;28;20051;-71
2022/10/11 09:49:18;;;;;;;6.13;1.98;;;;;;;;;;4961875;28;20053;-71
2022/10/11 09:51:52;;;;;;;7.22;1.60;;;;;;;;;;4960833;28;20057;-71
2022/10/11 09:54:18;;;;;;;7.38;2.38;;;;;;;;;;4962257;28;20049;-71
2022/10/11 09:56:45;;;;;;;6.28;1.98;;;;;;;;;;4962289;28;20038;-71
2022/10/11 09:59:29;;;;;;;6.35;1.70;;;;;;;;;;4961358;28;20388;-71
2022/10/11 10:02:18;;;;;;;5.53;1.45;;;;;;;;;;4961164;28;20109;-71
2022/10/11 10:04:53;;;;;;;7.45;1.77;;;;;;;;;;4961501;28;20065;-71
2022/10/11 10:07:19;;;;;;;8.18;2.08;;;;;;;;;;4961594;28;20062;-71
2022/10/11 10:09:45;;;;;;;7.10;2.00;;;;;;;;;;4962006;28;20511;-71
2022/10/11 10:12:22;;;;;;;6.40;1.80;;;;;;;;;;4960805;28;20039;-72
2022/10/11 10:15:16;;;;;;;8.88;2.05;;;;;;;;;;4961092;28;20117;-72
2022/10/11 10:17:50;;;;;;;6.57;1.95;;;;;;;;;;4959883;28;20051;-70
2022/10/11 10:20:25;;;;;;;3.70;1.85;;;;;;;;;;4961676;28;20059;-72
2022/10/11 10:22:50;;;;;;;4.20;1.67;;;;;;;;;;4961660;28;20055;-71
2022/10/11 10:25:24;;;;;;;9.43;2.10;;;;;;;;;;4960103;28;20053;-69
2022/10/11 10:27:58;;;;;;;8.55;1.92;;;;;;;;;;4961810;28;20046;-69
2022/10/11 10:30:25;;;;;;;7.82;1.80;;;;;;;;;;4961841;28;20042;-69
2022/10/11 10:32:58;;;;;;;5.68;1.67;;;;;;;;;;4961612;28;20053;-71
2022/10/11 10:35:24;;;;;;;3.50;1.70;;;;;;;;;;4960261;28;20058;-71
2022/10/11 10:37:58;;;;;;;8.85;2.40;;;;;;;;;;4961792;28;20058;-71
2022/10/11 10:40:35;;;;;;;6.00;1.70;;;;;;;;;;4961905;28;20059;-71
2022/10/11 10:43:01;;;;;;;5.07;1.70;;;;;;;;;;4961027;28;20043;-71
2022/10/11 10:45:36;;;;;;;6.53;2.15;;;;;;;;;;4960760;28;20061;-72
2022/10/11 10:48:17;;;;;;;5.32;1.75;;;;;;;;;;4961611;28;20561;-71
2022/10/11 10:50:56;;;;;;;6.78;1.60;;;;;;;;;;4961554;28;20412;-71
2022/10/11 10:53:33;;;;;;;8.70;2.05;;;;;;;;;;4961139;28;20507;-72
2022/10/11 10:56:12;;;;;;;9.25;2.20;;;;;;;;;;4962241;28;20094;-71
2022/10/11 10:58:43;;;;;;;5.43;2.13;;;;;;;;;;4961434;28;20489;-70
2022/10/11 11:01:15;;;;;;;6.55;1.55;;;;;;;;;;4961033;28;20047;-71
2022/10/11 11:04:03;;;;;;;10.27;1.50;;;;;;;;;;4961427;28;20125;-72
2022/10/11 11:07:10;;;;;;;6.38;1.80;;;;;;;;;;4961488;28;20046;-71
2022/10/11 11:09:42;;;;;;;4.38;1.52;;;;;;;;;;4886252;29;20055;-71
2022/10/11 11:12:38;;;;;;;10.55;1.90;;;;;;;;;;4901261;29;20401;-71
2022/10/11 11:15:34;;;;;;;6.55;1.33;;;;;;;;;;4955978;28;20392;-71
2022/10/11 11:18:25;;;;;;;4.07;1.20;;;;;;;;;;4965174;28;20443;-71
2022/10/11 11:21:16;;;;;;;3.20;1.50;;;;;;;;;;4964943;28;20830;-71
2022/10/11 11:23:59;;;;;;;4.17;1.50;;;;;;;;;;4948003;28;20074;-71
2022/10/11 11:26:35;;;;;;;5.18;1.40;;;;;;;;;;4963846;28;20042;-71
2022/10/11 11:29:12;;;;;;;4.00;1.15;;;;;;;;;;4964286;28;20042;-71
2022/10/11 11:31:46;;;;;;;5.25;1.77;;;;;;;;;;4964339;28;20074;-71
2022/10/11 11:34:23;;;;;;;7.55;1.60;;;;;;;;;;4959704;28;20054;-70
2022/10/11 11:37:20;;;;;;;3.38;1.50;;;;;;;;;;4963382;28;20069;-71
2022/10/11 11:39:53;;;;;;;4.70;1.10;;;;;;;;;;4962235;28;20051;-72
2022/10/11 11:42:40;;;;;;;6.15;1.65;;;;;;;;;;4962207;28;20046;-71
2022/10/11 11:45:24;;;;;;;5.95;1.40;;;;;;;;;;4963350;28;20575;-72
2022/10/11 11:48:02;;;;;;;7.78;1.80;;;;;;;;;;4964033;28;20035;-70
2022/10/11 11:50:35;;;;;;;4.85;1.52;;;;;;;;;;4961732;28;20516;-71
2022/10/11 11:53:06;;;;;;;11.25;2.13;;;;;;;;;;4954463;28;20058;-71
2022/10/11 11:55:51;;;;;;;5.32;1.83;;;;;;;;;;4962085;28;20051;-70
2022/10/11 11:58:39;;;;;;;5.25;2.00;;;;;;;;;;4963830;28;20105;-70
2022/10/11 12:01:34;;;;;;;9.52;2.70;;;;;;;;;;4963355;28;20050;-70
2022/10/11 12:04:05;;;;;;;9.38;2.20;;;;;;;;;;4952491;28;20051;-71
2022/10/11 12:06:34;;;;;;;7.75;2.20;;;;;;;;;;4963889;28;20057;-72
2022/10/11 12:09:16;;;;;;;6.30;2.28;;;;;;;;;;4963295;28;20067;-71
2022/10/11 12:12:06;;;;;;;10.20;2.90;;;;;;;;;;4963847;28;20531;-71
2022/10/11 12:14:32;;;;;;;8.57;2.15;;;;;;;;;;4962920;28;20130;-71
2022/10/11 12:17:22;;;;;;;7.90;2.10;;;;;;;;;;4963636;28;20043;-70
2022/10/11 12:20:06;;;;;;;4.15;2.00;;;;;;;;;;4961208;28;20051;-71
2022/10/11 12:22:32;;;;;;;8.43;2.10;;;;;;;;;;4963573;28;20062;-71
2022/10/11 12:24:59;;;;;;;6.78;1.88;;;;;;;;;;4962778;28;20046;-71
2022/10/11 12:28:01;;;;;;;10.43;2.33;;;;;;;;;;4962352;28;20054;-71
2022/10/11 12:30:43;;;;;;;4.65;2.53;;;;;;;;;;4920643;28;20054;-69
2022/10/11 12:33:29;;;;;;;7.65;2.45;;;;;;;;;;4961071;28;20136;-71
2022/10/11 12:35:54;;;;;;;7.72;2.10;;;;;;;;;;4961561;28;20050;-70
2022/10/11 12:38:42;;;;;;;4.80;2.10;;;;;;;;;;4963654;28;20054;-70
2022/10/11 12:41:07;;;;;;;5.57;2.40;;;;;;;;;;4962003;28;20526;-70
2022/10/11 12:44:07;;;;;;;8.68;2.40;;;;;;;;;;4962938;28;20129;-70
2022/10/11 12:46:40;;;;;;;8.77;2.35;;;;;;;;;;4937419;28;20054;-70
2022/10/11 12:49:09;;;;;;;6.93;2.25;;;;;;;;;;4963683;28;20411;-70
2022/10/11 12:51:41;;;;;;;5.50;2.58;;;;;;;;;;4961353;28;20062;-70
2022/10/11 12:54:06;;;;;;;8.52;2.75;;;;;;;;;;4952324;28;20051;-70
2022/10/11 12:56:56;;;;;;;6.28;2.83;;;;;;;;;;4963211;28;20058;-70
2022/10/11 12:59:22;;;;;;;7.43;2.33;;;;;;;;;;4960249;28;20058;-70
2022/10/11 13:01:57;;;;;;;6.13;2.40;;;;;;;;;;4962714;28;20074;-71
2022/10/11 13:04:33;;;;;;;5.18;2.50;;;;;;;;;;4963294;28;20138;-70
2022/10/11 13:07:11;;;;;;;7.50;2.80;;;;;;;;;;4963117;28;20566;-72
2022/10/11 13:09:39;;;;;;;8.32;2.70;;;;;;;;;;4936635;28;20572;-70
2022/10/11 13:12:14;;;;;;;6.68;2.95;;;;;;;;;;4963044;28;20088;-70
2022/10/11 13:14:43;;;;;;;12.52;3.05;;;;;;;;;;4963085;28;20039;-70
2022/10/11 13:17:33;;;;;;;12.43;2.92;;;;;;;;;;4962449;28;20089;-70
2022/10/11 13:20:14;;;;;;;6.70;2.78;;;;;;;;;;4954215;28;20106;-71
2022/10/11 13:22:39;;;;;;;8.77;3.40;;;;;;;;;;4962540;28;20046;-71
2022/10/11 13:25:06;;;;;;;6.75;2.80;;;;;;;;;;4962196;28;20047;-71
2022/10/11 13:27:32;;;;;;;9.63;3.05;;;;;;;;;;4963309;28;20043;-70
2022/10/11 13:30:01;;;;;;;10.68;3.35;;;;;;;;;;4962551;28;20403;-71
2022/10/11 13:32:29;;;;;;;7.68;2.90;;;;;;;;;;4961771;28;20047;-70
2022/10/11 13:34:59;;;;;;;13.55;3.17;;;;;;;;;;4962657;28;20047;-70
2022/10/11 13:37:27;;;;;;;13.43;3.17;;;;;;;;;;4962072;28;20496;-71
2022/10/11 13:39:54;;;;;;;10.57;3.78;;;;;;;;;;4961761;28;20131;-70
2022/10/11 13:42:27;;;;;;;7.93;3.00;;;;;;;;;;4961393;28;20846;-71
2022/10/11 13:44:53;;;;;;;13.25;3.20;;;;;;;;;;4962249;28;20093;-71
2022/10/11 13:47:23;;;;;;;8.30;3.05;;;;;;;;;;4961750;28;20067;-70
2022/10/11 13:50:15;;;;;;;7.47;3.10;;;;;;;;;;4960758;28;20503;-71
2022/10/11 13:53:06;;;;;;;11.98;3.20;;;;;;;;;;4961619;28;20496;-71
2022/10/11 13:55:41;;;;;;;8.90;3.28;;;;;;;;;;4929469;28;20062;-70
2022/10/11 13:58:30;;;;;;;12.52;2.67;;;;;;;;;;4960822;28;20039;-70
2022/10/11 14:01:01;;;;;;;12.85;2.83;;;;;;;;;;4960625;28;20078;-70
2022/10/11 14:03:40;;;;;;;15.00;3.38;;;;;;;;;;4960562;28;20057;-71
2022/10/11 14:06:06;;;;;;;11.20;3.00;;;;;;;;;;4961884;28;20046;-71
2022/10/11 14:08:36;;;;;;;11.90;2.50;;;;;;;;;;4962330;28;20077;-71
2022/10/11 14:11:02;;;;;;;10.75;2.90;;;;;;;;;;4959729;28;20043;-72
2022/10/11 14:13:34;;;;;;;10.73;2.92;;;;;;;;;;4961611;28;20065;-70
2022/10/11 14:16:12;;;;;;;12.07;3.75;;;;;;;;;;4960944;28;20045;-70
2022/10/11 14:18:40;;;;;;;13.15;3.10;;;;;;;;;;4961920;28;20058;-69
2022/10/11 14:21:17;;;;;;;14.50;3.38;;;;;;;;;;4960762;28;20492;-70
2022/10/11 14:23:44;;;;;;;7.82;2.72;;;;;;;;;;4961341;28;20062;-71
2022/10/11 14:26:14;;;;;;;9.27;3.38;;;;;;;;;;4961233;28;20057;-70
2022/10/11 14:28:39;;;;;;;12.63;2.95;;;;;;;;;;4961556;28;20092;-70
2022/10/11 14:31:05;;;;;;;12.77;3.30;;;;;;;;;;4960832;28;20510;-70
2022/10/11 14:33:32;;;;;;;8.43;2.90;;;;;;;;;;4961848;28;20103;-70
2022/10/11 14:35:57;;;;;;;11.27;3.47;;;;;;;;;;4961717;28;20055;-70
2022/10/11 14:38:22;;;;;;;7.15;3.10;;;;;;;;;;4960988;28;20050;-70
2022/10/11 14:40:48;;;;;;;10.77;2.80;;;;;;;;;;4961606;28;20047;-70
2022/10/11 14:43:13;;;;;;;18.98;3.22;;;;;;;;;;4960292;28;20062;-71
2022/10/11 14:45:39;;;;;;;14.85;3.17;;;;;;;;;;4961338;28;20067;-70
2022/10/11 14:48:05;;;;;;;9.27;2.80;;;;;;;;;;4960366;28;21168;-71
2022/10/11 14:50:56;;;;;;;10.27;2.85;;;;;;;;;;4963823;28;20039;-70
2022/10/11 14:53:21;;;;;;;13.45;3.10;;;;;;;;;;4965014;28;20043;-70
2022/10/11 14:55:47;;;;;;;12.32;2.80;;;;;;;;;;4965607;28;21075;-70
2022/10/11 14:58:15;;;;;;;6.78;2.35;;;;;;;;;;4964633;28;20046;-70
2022/10/11 15:00:41;;;;;;;12.45;2.67;;;;;;;;;;4965019;28;20046;-70
2022/10/11 15:03:07;;;;;;;10.73;2.97;;;;;;;;;;4964491;28;20105;-70
2022/10/11 15:05:33;;;;;;;11.13;3.63;;;;;;;;;;4965404;28;20055;-70